Time;durP1;ratioP1;P1;durP2;ratioP2;P2;SDS_P1;SDS_P2;PMS_P1;PMS_P2;Temp;Humidity;BMP_temperature;BMP_pressure;BME280_temperature;BME280_humidity;BME280_pressure;Samples;Min_cycle;Max_cycle;Signal;HPM_P1;HPM_P2
2022/01/05 00:01:25;;;;;;;6.93;2.30;;;;;;;;;;5017319;28;20171;-60
2022/01/05 00:03:51;;;;;;;6.85;2.30;;;;;;;;;;5016930;28;20590;-61
2022/01/05 00:06:17;;;;;;;6.38;2.20;;;;;;;;;;5017162;28;20265;-61
2022/01/05 00:08:43;;;;;;;8.27;2.97;;;;;;;;;;5017327;28;20174;-61
2022/01/05 00:11:10;;;;;;;9.02;2.75;;;;;;;;;;5017078;28;20197;-61
2022/01/05 00:13:36;;;;;;;9.85;2.75;;;;;;;;;;5016918;28;20618;-61
2022/01/05 00:16:02;;;;;;;4.50;2.10;;;;;;;;;;5016696;28;20252;-61
2022/01/05 00:18:28;;;;;;;7.78;2.72;;;;;;;;;;5016609;28;20209;-61
2022/01/05 00:20:55;;;;;;;7.90;2.58;;;;;;;;;;5016838;28;20190;-61
2022/01/05 00:23:21;;;;;;;6.20;2.38;;;;;;;;;;5017119;28;20171;-61
2022/01/05 00:25:47;;;;;;;8.27;2.22;;;;;;;;;;5016685;28;20241;-60
2022/01/05 00:28:13;;;;;;;9.32;2.70;;;;;;;;;;5016492;28;20221;-60
2022/01/05 00:30:39;;;;;;;11.02;2.28;;;;;;;;;;5016652;28;20166;-60
2022/01/05 00:33:05;;;;;;;4.38;2.03;;;;;;;;;;5016807;28;20274;-61
2022/01/05 00:35:31;;;;;;;11.10;2.30;;;;;;;;;;5016504;28;20166;-60
2022/01/05 00:37:57;;;;;;;6.82;1.90;;;;;;;;;;5016399;28;20166;-61
2022/01/05 00:40:22;;;;;;;6.95;2.15;;;;;;;;;;4998997;28;20224;-61
2022/01/05 00:42:48;;;;;;;7.03;2.13;;;;;;;;;;4998913;28;20578;-61
2022/01/05 00:45:14;;;;;;;5.55;2.40;;;;;;;;;;5016322;28;20166;-61
2022/01/05 00:47:40;;;;;;;7.47;1.83;;;;;;;;;;5016453;28;20162;-61
2022/01/05 00:50:06;;;;;;;5.78;1.77;;;;;;;;;;5016247;28;20257;-60
2022/01/05 00:52:32;;;;;;;9.25;1.85;;;;;;;;;;5015455;28;20360;-60
2022/01/05 00:54:58;;;;;;;9.50;3.15;;;;;;;;;;5016358;28;20262;-60
2022/01/05 00:57:24;;;;;;;6.97;2.03;;;;;;;;;;5016420;28;20167;-61
2022/01/05 00:59:50;;;;;;;8.38;1.75;;;;;;;;;;5016112;28;20181;-60
2022/01/05 01:02:16;;;;;;;3.17;1.30;;;;;;;;;;5016234;28;20555;-61
2022/01/05 01:04:42;;;;;;;4.85;1.70;;;;;;;;;;5015903;28;20170;-60
2022/01/05 01:07:08;;;;;;;7.93;2.40;;;;;;;;;;5015866;28;20220;-60
2022/01/05 01:09:34;;;;;;;7.95;1.83;;;;;;;;;;5016086;28;20553;-61
2022/01/05 01:12:00;;;;;;;5.20;1.77;;;;;;;;;;5015642;28;20185;-61
2022/01/05 01:14:26;;;;;;;5.15;1.67;;;;;;;;;;5015843;28;20180;-61
2022/01/05 01:16:52;;;;;;;6.78;1.80;;;;;;;;;;5015661;28;20249;-61
2022/01/05 01:19:17;;;;;;;7.90;2.00;;;;;;;;;;5015474;28;20633;-61
2022/01/05 01:21:43;;;;;;;7.00;1.80;;;;;;;;;;5015729;28;20166;-61
2022/01/05 01:24:09;;;;;;;6.05;1.80;;;;;;;;;;5015663;28;20216;-61
2022/01/05 01:26:35;;;;;;;12.25;2.13;;;;;;;;;;5015495;28;20305;-61
2022/01/05 01:29:01;;;;;;;4.82;1.92;;;;;;;;;;5016053;28;20162;-61
2022/01/05 01:31:28;;;;;;;7.10;1.85;;;;;;;;;;5015608;28;20705;-62
2022/01/05 01:33:54;;;;;;;8.10;2.45;;;;;;;;;;5015312;28;20163;-61
2022/01/05 01:36:20;;;;;;;9.90;2.17;;;;;;;;;;5015525;28;20185;-61
2022/01/05 01:38:46;;;;;;;11.00;2.20;;;;;;;;;;5015073;28;20178;-59
2022/01/05 01:41:12;;;;;;;11.27;2.17;;;;;;;;;;5015178;28;20498;-60
2022/01/05 01:43:39;;;;;;;7.65;2.50;;;;;;;;;;5015046;28;20166;-60
2022/01/05 01:46:05;;;;;;;5.82;2.10;;;;;;;;;;5015180;28;20686;-61
2022/01/05 01:48:31;;;;;;;10.13;2.55;;;;;;;;;;5014944;28;20193;-61
2022/01/05 01:50:57;;;;;;;8.88;2.40;;;;;;;;;;5015044;28;20515;-60
2022/01/05 01:53:23;;;;;;;5.32;2.25;;;;;;;;;;5015074;28;20201;-61
2022/01/05 01:55:50;;;;;;;6.85;2.53;;;;;;;;;;5015037;28;20301;-61
2022/01/05 01:58:17;;;;;;;7.47;2.13;;;;;;;;;;5014825;28;20174;-61
2022/01/05 02:00:43;;;;;;;9.50;2.33;;;;;;;;;;5015183;28;20492;-61
2022/01/05 02:03:09;;;;;;;9.75;2.72;;;;;;;;;;5014668;28;20621;-61
2022/01/05 02:05:35;;;;;;;5.78;2.78;;;;;;;;;;5015006;28;20178;-60
2022/01/05 02:08:02;;;;;;;4.75;2.20;;;;;;;;;;5014930;28;20159;-60
2022/01/05 02:10:28;;;;;;;8.10;2.15;;;;;;;;;;5014931;28;20171;-60
2022/01/05 02:12:54;;;;;;;7.38;2.55;;;;;;;;;;5014695;28;20201;-60
2022/01/05 02:15:21;;;;;;;8.13;2.60;;;;;;;;;;5014592;28;20170;-59
2022/01/05 02:18:07;;;;;;;8.43;2.70;;;;;;;;;;5014841;28;20166;-61
2022/01/05 02:20:34;;;;;;;6.03;2.30;;;;;;;;;;5014713;28;20154;-61
2022/01/05 02:23:00;;;;;;;4.75;2.20;;;;;;;;;;5014828;28;20177;-61
2022/01/05 02:25:26;;;;;;;9.55;2.72;;;;;;;;;;5014635;28;20275;-60
2022/01/05 02:27:54;;;;;;;8.82;2.60;;;;;;;;;;5014343;28;20170;-60
2022/01/05 02:30:22;;;;;;;8.43;2.65;;;;;;;;;;5014565;28;20269;-60
2022/01/05 02:32:48;;;;;;;5.50;2.53;;;;;;;;;;5014233;28;20268;-60
2022/01/05 02:35:14;;;;;;;10.23;3.03;;;;;;;;;;5014460;28;20181;-61
2022/01/05 02:37:41;;;;;;;9.27;2.55;;;;;;;;;;5014484;28;20219;-60
2022/01/05 02:40:08;;;;;;;5.57;2.33;;;;;;;;;;5014418;28;20166;-60
2022/01/05 02:42:34;;;;;;;8.35;2.80;;;;;;;;;;5014127;28;20170;-61
2022/01/05 02:45:00;;;;;;;9.60;2.75;;;;;;;;;;5014076;28;20621;-59
2022/01/05 02:47:26;;;;;;;9.85;2.65;;;;;;;;;;5014085;28;20170;-61
2022/01/05 02:49:52;;;;;;;8.20;2.63;;;;;;;;;;5014219;28;20170;-60
2022/01/05 02:52:18;;;;;;;6.78;2.65;;;;;;;;;;5013807;28;20193;-58
2022/01/05 02:54:43;;;;;;;9.52;2.70;;;;;;;;;;5014797;28;20162;-60
2022/01/05 02:57:09;;;;;;;8.55;3.00;;;;;;;;;;5013952;28;20170;-60
2022/01/05 02:59:35;;;;;;;6.93;2.83;;;;;;;;;;5013987;28;20166;-61
2022/01/05 03:02:01;;;;;;;9.02;2.67;;;;;;;;;;5025299;28;20166;-61
2022/01/05 03:04:27;;;;;;;8.85;3.00;;;;;;;;;;5015712;28;20170;-60
2022/01/05 03:06:53;;;;;;;8.80;2.78;;;;;;;;;;5014042;28;20178;-60
2022/01/05 03:09:19;;;;;;;11.38;3.05;;;;;;;;;;5013836;28;20503;-60
2022/01/05 03:11:45;;;;;;;6.78;2.50;;;;;;;;;;5013620;28;20190;-60
2022/01/05 03:14:11;;;;;;;8.55;3.28;;;;;;;;;;5013233;28;20509;-59
2022/01/05 03:16:37;;;;;;;9.40;3.30;;;;;;;;;;5013652;28;20158;-60
2022/01/05 03:19:03;;;;;;;13.10;3.13;;;;;;;;;;5013627;28;20169;-60
2022/01/05 03:21:29;;;;;;;9.13;2.85;;;;;;;;;;5013754;28;20236;-60
2022/01/05 03:23:55;;;;;;;7.05;2.72;;;;;;;;;;5013786;28;20174;-59
2022/01/05 03:26:21;;;;;;;9.18;3.15;;;;;;;;;;5013588;28;20602;-60
2022/01/05 03:28:47;;;;;;;7.63;3.08;;;;;;;;;;5013563;28;20177;-60
2022/01/05 03:31:13;;;;;;;9.52;3.35;;;;;;;;;;5013517;28;20186;-60
2022/01/05 03:33:39;;;;;;;6.05;2.80;;;;;;;;;;5013629;28;20609;-60
2022/01/05 03:36:05;;;;;;;9.18;3.40;;;;;;;;;;5013451;28;20613;-60
2022/01/05 03:38:31;;;;;;;9.32;2.92;;;;;;;;;;5013489;28;20163;-60
2022/01/05 03:40:57;;;;;;;10.02;3.00;;;;;;;;;;5013489;28;20488;-60
2022/01/05 03:43:23;;;;;;;8.52;3.00;;;;;;;;;;5013779;28;20167;-60
2022/01/05 03:45:51;;;;;;;6.85;2.72;;;;;;;;;;5013526;28;20663;-60
2022/01/05 03:48:20;;;;;;;8.23;2.83;;;;;;;;;;5013397;28;20162;-60
2022/01/05 03:50:46;;;;;;;9.20;2.65;;;;;;;;;;5013218;28;20176;-60
2022/01/05 03:53:12;;;;;;;5.68;2.10;;;;;;;;;;5013276;28;20213;-60
2022/01/05 03:55:39;;;;;;;5.78;2.22;;;;;;;;;;5013316;28;20174;-60
2022/01/05 03:58:05;;;;;;;8.65;2.63;;;;;;;;;;5013196;28;20170;-60
2022/01/05 04:00:32;;;;;;;8.13;2.60;;;;;;;;;;5013461;28;20175;-61
2022/01/05 04:02:59;;;;;;;12.32;2.70;;;;;;;;;;5013259;28;20158;-60
2022/01/05 04:05:25;;;;;;;4.70;2.03;;;;;;;;;;5013640;28;20162;-59
2022/01/05 04:07:51;;;;;;;6.07;1.90;;;;;;;;;;5013723;28;20166;-60
2022/01/05 04:10:20;;;;;;;9.10;2.47;;;;;;;;;;5013612;28;20468;-61
2022/01/05 04:12:47;;;;;;;7.53;2.42;;;;;;;;;;5013271;28;20525;-61
2022/01/05 04:15:14;;;;;;;4.82;2.00;;;;;;;;;;5013455;28;20185;-60
2022/01/05 04:17:40;;;;;;;5.78;2.47;;;;;;;;;;5013671;28;20166;-61
2022/01/05 04:20:06;;;;;;;6.97;2.35;;;;;;;;;;5013117;28;20162;-60
2022/01/05 04:22:32;;;;;;;5.32;2.30;;;;;;;;;;5013376;28;20501;-60
2022/01/05 04:24:58;;;;;;;5.32;2.20;;;;;;;;;;5013049;28;20196;-59
2022/01/05 04:27:23;;;;;;;9.82;2.15;;;;;;;;;;4997475;28;20179;-60
2022/01/05 04:29:49;;;;;;;6.28;2.10;;;;;;;;;;5017078;28;20268;-60
2022/01/05 04:32:15;;;;;;;7.97;2.65;;;;;;;;;;5016779;28;20201;-59
2022/01/05 04:34:41;;;;;;;8.43;2.35;;;;;;;;;;5017417;28;20198;-59
2022/01/05 04:37:07;;;;;;;6.22;2.65;;;;;;;;;;5017012;28;20216;-59
2022/01/05 04:39:34;;;;;;;13.05;2.33;;;;;;;;;;5017347;28;20163;-60
2022/01/05 04:42:00;;;;;;;11.80;2.45;;;;;;;;;;5016801;28;20174;-60
2022/01/05 04:44:26;;;;;;;6.30;2.47;;;;;;;;;;5016874;28;20261;-59
2022/01/05 04:46:52;;;;;;;7.22;2.50;;;;;;;;;;5016740;28;20170;-60
2022/01/05 04:49:18;;;;;;;8.80;2.50;;;;;;;;;;5016429;28;20165;-60
2022/01/05 04:51:44;;;;;;;9.50;2.25;;;;;;;;;;5016474;28;20209;-59
2022/01/05 04:54:10;;;;;;;9.25;2.30;;;;;;;;;;4998694;28;20450;-60
2022/01/05 04:56:36;;;;;;;5.10;2.10;;;;;;;;;;5016365;28;20257;-60
2022/01/05 04:59:02;;;;;;;5.25;1.95;;;;;;;;;;5016455;28;20162;-60
2022/01/05 05:01:28;;;;;;;8.98;2.40;;;;;;;;;;5016587;28;20171;-60
2022/01/05 05:03:53;;;;;;;7.30;1.83;;;;;;;;;;5016076;28;20263;-60
2022/01/05 05:06:19;;;;;;;8.98;2.15;;;;;;;;;;5015868;28;20241;-59
2022/01/05 05:08:45;;;;;;;8.95;2.33;;;;;;;;;;5016191;28;20249;-60
2022/01/05 05:11:11;;;;;;;5.65;2.13;;;;;;;;;;5015786;28;20208;-60
2022/01/05 05:13:37;;;;;;;8.88;2.22;;;;;;;;;;5016134;28;20170;-60
2022/01/05 05:16:03;;;;;;;6.13;1.77;;;;;;;;;;5015868;28;20166;-60
2022/01/05 05:18:29;;;;;;;8.13;2.65;;;;;;;;;;5015956;28;20163;-59
2022/01/05 05:20:55;;;;;;;7.75;2.10;;;;;;;;;;5015854;28;20173;-60
2022/01/05 05:23:21;;;;;;;4.03;2.22;;;;;;;;;;5015813;28;20205;-60
2022/01/05 05:25:47;;;;;;;7.32;2.50;;;;;;;;;;5015631;28;20166;-60
2022/01/05 05:28:13;;;;;;;4.18;1.77;;;;;;;;;;5015803;28;20455;-60
2022/01/05 05:30:38;;;;;;;8.73;2.08;;;;;;;;;;5015502;28;20169;-60
2022/01/05 05:33:05;;;;;;;11.23;2.05;;;;;;;;;;5015537;28;20574;-61
2022/01/05 05:35:31;;;;;;;7.18;2.28;;;;;;;;;;5015541;28;20608;-61
2022/01/05 05:37:57;;;;;;;8.30;2.30;;;;;;;;;;5014894;28;20304;-61
2022/01/05 05:40:23;;;;;;;6.53;1.77;;;;;;;;;;5015480;28;20172;-60
2022/01/05 05:42:49;;;;;;;8.57;2.17;;;;;;;;;;5015519;28;20166;-57
2022/01/05 05:45:15;;;;;;;12.10;2.10;;;;;;;;;;5016027;28;20517;-60
2022/01/05 05:47:41;;;;;;;6.65;1.40;;;;;;;;;;5015783;28;20166;-59
2022/01/05 05:50:08;;;;;;;11.23;1.58;;;;;;;;;;5016405;28;20174;-60
2022/01/05 05:52:33;;;;;;;9.10;2.17;;;;;;;;;;5016846;28;20260;-61
2022/01/05 05:54:59;;;;;;;4.68;1.80;;;;;;;;;;5017126;28;20519;-60
2022/01/05 05:57:25;;;;;;;8.15;2.13;;;;;;;;;;5016647;28;20174;-60
2022/01/05 05:59:51;;;;;;;7.28;1.60;;;;;;;;;;5017373;28;20166;-60
2022/01/05 06:02:18;;;;;;;3.95;1.55;;;;;;;;;;5015936;28;20174;-60
2022/01/05 06:04:44;;;;;;;7.03;1.58;;;;;;;;;;5018043;28;20548;-60
2022/01/05 06:07:10;;;;;;;4.97;1.23;;;;;;;;;;5017723;28;20257;-60
2022/01/05 06:09:36;;;;;;;11.23;1.63;;;;;;;;;;5019508;28;20230;-60
2022/01/05 06:12:02;;;;;;;9.82;1.52;;;;;;;;;;5017946;28;20273;-60
2022/01/05 06:14:28;;;;;;;6.57;2.08;;;;;;;;;;5017579;28;20232;-60
2022/01/05 06:16:54;;;;;;;5.15;1.52;;;;;;;;;;5021888;28;20163;-59
2022/01/05 06:19:20;;;;;;;7.60;1.65;;;;;;;;;;5031949;28;20468;-60
2022/01/05 06:21:46;;;;;;;5.90;1.75;;;;;;;;;;5021834;28;20185;-60
2022/01/05 06:24:12;;;;;;;6.30;1.45;;;;;;;;;;5025953;28;20269;-59
2022/01/05 06:26:38;;;;;;;3.80;1.60;;;;;;;;;;5029934;28;20174;-60
2022/01/05 06:29:04;;;;;;;6.95;1.73;;;;;;;;;;5020350;28;20177;-59
2022/01/05 06:31:30;;;;;;;6.00;1.55;;;;;;;;;;5019155;28;20202;-60
2022/01/05 06:33:56;;;;;;;4.18;1.48;;;;;;;;;;5014295;28;20175;-60
2022/01/05 06:36:22;;;;;;;8.38;2.13;;;;;;;;;;5014451;28;20174;-60
2022/01/05 06:38:48;;;;;;;5.43;2.05;;;;;;;;;;5014328;28;20172;-59
2022/01/05 06:41:14;;;;;;;9.35;2.30;;;;;;;;;;5014205;28;20556;-60
2022/01/05 06:43:40;;;;;;;5.32;1.58;;;;;;;;;;5014166;28;20174;-60
2022/01/05 06:46:06;;;;;;;7.32;2.08;;;;;;;;;;5014251;28;20243;-60
2022/01/05 06:48:32;;;;;;;6.25;1.90;;;;;;;;;;5014212;28;20173;-60
2022/01/05 06:50:58;;;;;;;10.13;2.58;;;;;;;;;;5013602;28;20173;-60
2022/01/05 06:53:24;;;;;;;12.55;2.70;;;;;;;;;;5013771;28;20200;-59
2022/01/05 06:55:50;;;;;;;6.63;2.10;;;;;;;;;;5013976;28;20162;-59
2022/01/05 06:58:16;;;;;;;7.57;2.22;;;;;;;;;;5013900;28;20177;-59
2022/01/05 07:00:42;;;;;;;7.72;2.15;;;;;;;;;;5013899;28;20632;-59
2022/01/05 07:03:09;;;;;;;5.57;2.13;;;;;;;;;;5013919;28;20170;-59
2022/01/05 07:05:35;;;;;;;6.78;2.35;;;;;;;;;;5014118;28;20182;-59
2022/01/05 07:08:01;;;;;;;7.28;2.58;;;;;;;;;;5013716;28;20167;-59
2022/01/05 07:10:27;;;;;;;9.15;2.63;;;;;;;;;;5013767;28;20258;-59
2022/01/05 07:12:53;;;;;;;6.95;2.10;;;;;;;;;;5013923;28;20204;-59
2022/01/05 07:15:19;;;;;;;5.70;2.53;;;;;;;;;;5013864;28;20253;-59
2022/01/05 07:17:45;;;;;;;4.93;1.95;;;;;;;;;;5013735;28;20162;-58
2022/01/05 07:20:11;;;;;;;7.32;2.40;;;;;;;;;;5013705;28;20167;-58
2022/01/05 07:22:37;;;;;;;3.80;2.00;;;;;;;;;;5013649;28;20162;-59
2022/01/05 07:25:04;;;;;;;5.35;2.50;;;;;;;;;;5013636;28;20626;-59
2022/01/05 07:27:30;;;;;;;8.63;1.85;;;;;;;;;;5013709;28;20521;-59
2022/01/05 07:29:56;;;;;;;9.63;2.20;;;;;;;;;;5013680;28;20166;-59
2022/01/05 07:32:22;;;;;;;5.97;2.00;;;;;;;;;;5013428;28;20186;-60
2022/01/05 07:34:48;;;;;;;5.88;2.05;;;;;;;;;;5013831;28;20257;-58
2022/01/05 07:37:15;;;;;;;7.15;2.45;;;;;;;;;;5013336;28;20256;-59
2022/01/05 07:39:41;;;;;;;5.00;2.45;;;;;;;;;;5013857;28;20170;-60
2022/01/05 07:42:07;;;;;;;5.80;2.63;;;;;;;;;;4996243;28;20174;-60
2022/01/05 07:44:33;;;;;;;6.43;2.20;;;;;;;;;;5013469;28;20181;-60
2022/01/05 07:46:59;;;;;;;5.43;2.40;;;;;;;;;;5013660;28;20174;-58
2022/01/05 07:49:25;;;;;;;5.63;2.38;;;;;;;;;;5013507;28;20174;-58
2022/01/05 07:51:51;;;;;;;4.35;2.33;;;;;;;;;;5014029;28;20200;-60
2022/01/05 07:54:17;;;;;;;6.35;2.60;;;;;;;;;;5013185;28;20189;-58
2022/01/05 07:56:43;;;;;;;5.18;2.88;;;;;;;;;;5013733;28;20198;-59
2022/01/05 07:59:09;;;;;;;6.03;2.53;;;;;;;;;;5013467;28;20202;-58
2022/01/05 08:01:35;;;;;;;8.10;2.67;;;;;;;;;;5015470;28;20166;-58
2022/01/05 08:04:01;;;;;;;6.93;3.78;;;;;;;;;;5017086;28;20188;-58
2022/01/05 08:06:27;;;;;;;4.38;2.55;;;;;;;;;;5017176;28;20174;-58
2022/01/05 08:08:53;;;;;;;10.43;3.17;;;;;;;;;;5016799;28;20228;-58
2022/01/05 08:11:19;;;;;;;6.80;3.13;;;;;;;;;;5016832;28;20190;-58
2022/01/05 08:13:46;;;;;;;7.97;2.95;;;;;;;;;;5016795;28;20167;-59
2022/01/05 08:16:12;;;;;;;4.70;2.80;;;;;;;;;;4999623;28;20170;-59
2022/01/05 08:18:38;;;;;;;7.45;3.08;;;;;;;;;;5016845;28;20166;-59
2022/01/05 08:21:04;;;;;;;4.38;2.83;;;;;;;;;;5017076;28;20188;-59
2022/01/05 08:23:30;;;;;;;5.18;3.08;;;;;;;;;;5016935;28;20569;-59
2022/01/05 08:25:56;;;;;;;5.90;3.10;;;;;;;;;;5016656;28;20547;-59
2022/01/05 08:28:22;;;;;;;6.95;2.97;;;;;;;;;;5016557;28;20201;-60
2022/01/05 08:30:48;;;;;;;4.50;2.80;;;;;;;;;;5016828;28;20170;-58
2022/01/05 08:33:15;;;;;;;5.60;3.38;;;;;;;;;;5016453;28;20685;-58
2022/01/05 08:35:42;;;;;;;5.93;3.28;;;;;;;;;;5016639;28;20170;-58
2022/01/05 08:38:08;;;;;;;7.18;3.15;;;;;;;;;;5016343;28;20190;-58
2022/01/05 08:40:35;;;;;;;6.38;3.20;;;;;;;;;;5016762;28;20170;-58
2022/01/05 08:43:02;;;;;;;5.15;3.05;;;;;;;;;;5016438;28;20162;-60
2022/01/05 08:45:28;;;;;;;8.45;3.28;;;;;;;;;;5016232;28;20174;-58
2022/01/05 08:47:55;;;;;;;6.75;3.50;;;;;;;;;;5016187;28;20166;-59
2022/01/05 08:50:22;;;;;;;9.20;3.40;;;;;;;;;;5016355;28;20269;-59
2022/01/05 08:52:48;;;;;;;5.72;2.92;;;;;;;;;;5015809;28;20669;-59
2022/01/05 08:55:15;;;;;;;7.38;3.70;;;;;;;;;;5016249;28;20613;-59
2022/01/05 08:57:42;;;;;;;5.88;3.38;;;;;;;;;;5016114;28;20170;-59
2022/01/05 09:00:08;;;;;;;6.07;3.00;;;;;;;;;;5016142;28;20520;-59
2022/01/05 09:02:34;;;;;;;6.15;2.95;;;;;;;;;;5015854;28;20181;-59
2022/01/05 09:05:00;;;;;;;5.45;2.88;;;;;;;;;;5016138;28;20170;-59
2022/01/05 09:07:26;;;;;;;8.43;3.17;;;;;;;;;;5016020;28;20170;-59
2022/01/05 09:09:52;;;;;;;8.60;3.03;;;;;;;;;;5015678;28;20174;-59
2022/01/05 09:12:18;;;;;;;5.97;3.10;;;;;;;;;;5014836;28;20190;-59
2022/01/05 09:14:44;;;;;;;6.88;3.40;;;;;;;;;;5015576;28;20197;-59
2022/01/05 09:17:10;;;;;;;8.50;2.92;;;;;;;;;;5015674;28;20170;-59
2022/01/05 09:19:36;;;;;;;6.20;3.13;;;;;;;;;;5015482;28;20174;-59
2022/01/05 09:22:03;;;;;;;7.18;3.25;;;;;;;;;;5015569;28;20198;-59
2022/01/05 09:24:29;;;;;;;8.10;2.78;;;;;;;;;;5015663;28;20249;-59
2022/01/05 09:27:02;;;;;;;10.30;3.13;;;;;;;;;;5015665;28;20658;-58
2022/01/05 09:29:28;;;;;;;8.05;3.20;;;;;;;;;;5015640;28;20158;-58
2022/01/05 09:31:54;;;;;;;6.85;2.67;;;;;;;;;;5015342;28;20186;-59
2022/01/05 09:34:20;;;;;;;7.28;2.83;;;;;;;;;;5015686;28;20166;-60
2022/01/05 09:36:50;;;;;;;10.27;3.67;;;;;;;;;;5015583;28;20663;-61
2022/01/05 09:42:01;;;;;;;7.25;3.42;;;;;;;;;;5015223;28;20245;-60
2022/01/05 09:44:31;;;;;;;7.82;2.80;;;;;;;;;;5014980;28;20617;-60
2022/01/05 09:47:06;;;;;;;6.95;3.30;;;;;;;;;;5015025;28;20185;-60
2022/01/05 09:49:34;;;;;;;6.07;2.40;;;;;;;;;;5015218;28;20181;-61
2022/01/05 09:52:07;;;;;;;7.60;3.20;;;;;;;;;;5014847;28;20194;-60
2022/01/05 09:54:34;;;;;;;6.35;3.17;;;;;;;;;;5014957;28;20253;-60
2022/01/05 09:57:00;;;;;;;8.65;3.60;;;;;;;;;;5015098;28;20181;-60
2022/01/05 09:59:26;;;;;;;8.27;3.38;;;;;;;;;;5015028;28;20163;-60
2022/01/05 10:01:52;;;;;;;8.50;2.65;;;;;;;;;;5014895;28;20225;-60
2022/01/05 10:04:18;;;;;;;6.20;2.70;;;;;;;;;;5014679;28;20608;-60
2022/01/05 10:06:44;;;;;;;7.95;2.67;;;;;;;;;;5014741;28;20174;-60
2022/01/05 10:09:10;;;;;;;11.15;3.15;;;;;;;;;;5014579;28;20182;-60
2022/01/05 10:11:36;;;;;;;6.05;2.70;;;;;;;;;;5014660;28;20673;-59
2022/01/05 10:14:03;;;;;;;6.10;2.42;;;;;;;;;;5014606;28;20253;-59
2022/01/05 10:16:28;;;;;;;10.07;2.28;;;;;;;;;;5014569;28;20166;-59
2022/01/05 10:18:54;;;;;;;6.07;2.15;;;;;;;;;;5014312;28;20232;-59
2022/01/05 10:21:20;;;;;;;7.63;2.33;;;;;;;;;;5014547;28;20181;-59
2022/01/05 10:23:53;;;;;;;4.13;2.20;;;;;;;;;;5014222;28;20213;-59
2022/01/05 10:26:21;;;;;;;6.97;2.20;;;;;;;;;;5014302;28;20167;-59
2022/01/05 10:28:47;;;;;;;7.40;1.90;;;;;;;;;;5014628;28;20201;-61
2022/01/05 10:31:18;;;;;;;5.15;1.95;;;;;;;;;;5014568;28;20169;-59
2022/01/05 10:33:44;;;;;;;5.18;1.92;;;;;;;;;;5014116;28;20166;-60
2022/01/05 10:36:10;;;;;;;4.78;1.77;;;;;;;;;;5014231;28;20166;-59
2022/01/05 10:38:35;;;;;;;6.72;1.90;;;;;;;;;;5014709;28;20181;-58
2022/01/05 10:41:15;;;;;;;3.22;2.00;;;;;;;;;;5014378;28;20173;-60
2022/01/05 10:43:59;;;;;;;5.18;2.03;;;;;;;;;;5014524;28;20181;-60
2022/01/05 10:46:33;;;;;;;4.35;1.65;;;;;;;;;;5014192;28;20561;-60
2022/01/05 10:49:00;;;;;;;4.38;1.88;;;;;;;;;;5014216;28;20249;-60
2022/01/05 10:51:29;;;;;;;8.75;2.33;;;;;;;;;;5014137;28;20198;-60
2022/01/05 10:54:13;;;;;;;5.20;1.80;;;;;;;;;;5013848;28;20543;-60
2022/01/05 10:56:39;;;;;;;6.30;1.90;;;;;;;;;;5014003;28;20170;-60
2022/01/05 10:59:05;;;;;;;4.60;1.55;;;;;;;;;;5013898;28;20177;-60
2022/01/05 11:01:32;;;;;;;3.60;1.58;;;;;;;;;;5014260;28;20176;-60
2022/01/05 11:03:58;;;;;;;2.05;1.23;;;;;;;;;;5014021;28;20201;-60
2022/01/05 11:06:24;;;;;;;6.30;1.83;;;;;;;;;;5013505;28;20166;-60
2022/01/05 11:08:55;;;;;;;7.10;1.65;;;;;;;;;;5013853;28;20170;-60
2022/01/05 11:11:40;;;;;;;5.30;1.80;;;;;;;;;;5013460;28;20261;-60
2022/01/05 11:14:05;;;;;;;6.18;2.05;;;;;;;;;;5013877;28;20171;-60
2022/01/05 11:16:32;;;;;;;4.05;1.55;;;;;;;;;;5013525;28;20169;-60
2022/01/05 11:19:16;;;;;;;5.03;1.73;;;;;;;;;;5013865;28;20170;-60
2022/01/05 11:21:54;;;;;;;5.10;1.90;;;;;;;;;;5013553;28;20190;-60
2022/01/05 11:24:20;;;;;;;3.38;1.48;;;;;;;;;;5013592;28;20166;-59
2022/01/05 11:26:46;;;;;;;3.17;1.92;;;;;;;;;;5013674;28;20373;-61
2022/01/05 11:29:13;;;;;;;3.63;1.90;;;;;;;;;;5013753;28;20178;-61
2022/01/05 11:31:39;;;;;;;5.47;1.80;;;;;;;;;;5013309;28;20190;-59
2022/01/05 11:34:05;;;;;;;3.58;1.67;;;;;;;;;;5013466;28;20228;-61
2022/01/05 11:36:32;;;;;;;4.85;2.10;;;;;;;;;;5015864;28;20170;-60
2022/01/05 11:38:58;;;;;;;5.10;2.28;;;;;;;;;;5017291;28;20309;-60
2022/01/05 11:41:24;;;;;;;4.28;2.05;;;;;;;;;;5017405;28;20548;-61
2022/01/05 11:43:50;;;;;;;5.82;1.80;;;;;;;;;;5017448;28;20163;-59
2022/01/05 11:46:18;;;;;;;4.95;1.42;;;;;;;;;;5017195;28;20602;-60
2022/01/05 11:49:03;;;;;;;3.63;1.60;;;;;;;;;;5017281;28;20325;-60
2022/01/05 11:51:30;;;;;;;3.28;1.70;;;;;;;;;;5017029;28;20630;-60
2022/01/05 11:54:12;;;;;;;3.33;1.50;;;;;;;;;;5016974;28;20653;-61
2022/01/05 11:56:42;;;;;;;7.22;1.95;;;;;;;;;;5017203;28;20204;-61
2022/01/05 11:59:18;;;;;;;3.78;2.00;;;;;;;;;;5017191;28;20166;-61
2022/01/05 12:01:56;;;;;;;4.72;2.17;;;;;;;;;;5017390;28;20151;-60
2022/01/05 12:04:22;;;;;;;2.40;1.30;;;;;;;;;;5017909;28;20464;-61
2022/01/05 12:06:48;;;;;;;5.47;2.05;;;;;;;;;;5018056;28;20617;-60
2022/01/05 12:09:19;;;;;;;2.97;1.88;;;;;;;;;;5018102;28;20181;-58
2022/01/05 12:11:45;;;;;;;5.07;2.10;;;;;;;;;;5019120;28;20194;-60
2022/01/05 12:14:23;;;;;;;4.63;2.10;;;;;;;;;;5020184;28;20173;-59
2022/01/05 12:16:55;;;;;;;6.15;2.00;;;;;;;;;;5017172;28;20193;-60
2022/01/05 12:19:21;;;;;;;4.55;2.25;;;;;;;;;;5017168;28;20208;-59
2022/01/05 12:21:48;;;;;;;5.38;2.10;;;;;;;;;;5016768;28;20588;-60
2022/01/05 12:24:14;;;;;;;3.85;2.45;;;;;;;;;;5016638;28;20177;-60
2022/01/05 12:26:41;;;;;;;7.82;2.13;;;;;;;;;;5017097;28;20170;-59
2022/01/05 12:29:07;;;;;;;7.20;3.03;;;;;;;;;;5016709;28;20166;-61
2022/01/05 12:31:48;;;;;;;4.45;2.10;;;;;;;;;;5016702;28;20196;-60
2022/01/05 12:34:14;;;;;;;6.53;2.05;;;;;;;;;;5016834;28;20503;-60
2022/01/05 12:36:42;;;;;;;4.30;2.10;;;;;;;;;;5016596;28;20162;-58
2022/01/05 12:39:09;;;;;;;5.55;2.33;;;;;;;;;;5016757;28;20189;-61
2022/01/05 12:41:35;;;;;;;8.02;2.40;;;;;;;;;;5016381;28;20268;-60
2022/01/05 12:44:05;;;;;;;10.52;2.85;;;;;;;;;;5016681;28;20665;-60
2022/01/05 12:46:37;;;;;;;7.88;1.92;;;;;;;;;;5016136;28;20154;-60
2022/01/05 12:49:05;;;;;;;10.25;2.72;;;;;;;;;;5015490;28;20198;-60
2022/01/05 12:51:36;;;;;;;7.13;2.45;;;;;;;;;;5016101;28;20622;-61
2022/01/05 12:54:05;;;;;;;4.47;2.40;;;;;;;;;;5016095;28;20182;-60
2022/01/05 12:56:46;;;;;;;7.43;2.00;;;;;;;;;;5016345;28;20257;-60
2022/01/05 12:59:17;;;;;;;5.55;2.38;;;;;;;;;;5016371;28;20311;-61
2022/01/05 13:01:44;;;;;;;6.43;2.15;;;;;;;;;;5016365;28;20170;-60
2022/01/05 13:04:11;;;;;;;5.15;2.38;;;;;;;;;;5016205;28;20178;-59
2022/01/05 13:06:37;;;;;;;6.35;2.13;;;;;;;;;;5015896;28;20174;-60
2022/01/05 13:09:06;;;;;;;4.57;2.20;;;;;;;;;;5015737;28;20174;-61
2022/01/05 13:11:41;;;;;;;3.58;2.00;;;;;;;;;;5015853;28;20275;-60
2022/01/05 13:14:10;;;;;;;8.82;2.10;;;;;;;;;;5015971;28;20181;-60
2022/01/05 13:16:36;;;;;;;6.80;2.42;;;;;;;;;;5016030;28;20181;-59
2022/01/05 13:19:02;;;;;;;5.50;2.40;;;;;;;;;;5016402;28;20170;-60
2022/01/05 13:21:42;;;;;;;7.53;2.05;;;;;;;;;;5015624;28;20575;-61
2022/01/05 13:24:08;;;;;;;3.70;2.13;;;;;;;;;;5015816;28;20147;-60
2022/01/05 13:26:34;;;;;;;6.45;2.00;;;;;;;;;;5015996;28;20217;-60
2022/01/05 13:29:19;;;;;;;7.05;2.17;;;;;;;;;;5015621;28;20234;-61
2022/01/05 13:31:58;;;;;;;4.80;1.90;;;;;;;;;;5015506;28;20265;-60
2022/01/05 13:34:31;;;;;;;4.85;2.30;;;;;;;;;;5015464;28;20177;-60
2022/01/05 13:36:57;;;;;;;3.42;1.60;;;;;;;;;;5015271;28;20177;-60
2022/01/05 13:39:36;;;;;;;2.78;1.60;;;;;;;;;;5015194;28;20162;-59
2022/01/05 13:42:02;;;;;;;6.40;2.10;;;;;;;;;;5015140;28;20162;-60
2022/01/05 13:44:28;;;;;;;5.45;1.98;;;;;;;;;;5015365;28;20174;-60
2022/01/05 13:46:54;;;;;;;5.43;2.00;;;;;;;;;;5015191;28;20174;-60
2022/01/05 13:49:20;;;;;;;5.70;1.90;;;;;;;;;;5015572;28;20166;-60
2022/01/05 13:52:01;;;;;;;5.47;1.60;;;;;;;;;;5015270;28;20209;-60
2022/01/05 13:54:27;;;;;;;5.95;1.30;;;;;;;;;;5014906;28;20186;-61
2022/01/05 13:56:53;;;;;;;5.07;1.40;;;;;;;;;;5014742;28;20166;-61
2022/01/05 13:59:19;;;;;;;5.28;1.70;;;;;;;;;;5014714;28;20606;-60
2022/01/05 14:01:58;;;;;;;7.60;1.73;;;;;;;;;;5014976;28;20228;-60
2022/01/05 14:04:24;;;;;;;5.25;1.80;;;;;;;;;;5014843;28;20228;-60
2022/01/05 14:07:00;;;;;;;3.60;1.45;;;;;;;;;;5014940;28;20170;-60
2022/01/05 14:09:29;;;;;;;2.42;1.27;;;;;;;;;;5014747;28;20624;-60
2022/01/05 14:11:57;;;;;;;2.90;1.40;;;;;;;;;;5014649;28;20194;-60
2022/01/05 14:14:23;;;;;;;1.58;1.17;;;;;;;;;;4997207;28;20180;-60
2022/01/05 14:16:50;;;;;;;2.17;1.55;;;;;;;;;;5014832;28;20255;-59
2022/01/05 14:19:26;;;;;;;2.38;1.35;;;;;;;;;;5014949;28;20544;-60
2022/01/05 14:21:52;;;;;;;2.20;1.63;;;;;;;;;;5014606;28;20174;-59
2022/01/05 14:24:28;;;;;;;3.67;1.60;;;;;;;;;;5014901;28;20174;-58
2022/01/05 14:26:54;;;;;;;3.00;1.45;;;;;;;;;;5014366;28;20574;-61
2022/01/05 14:29:24;;;;;;;3.47;1.50;;;;;;;;;;5014511;28;20177;-60
2022/01/05 14:31:50;;;;;;;2.45;1.80;;;;;;;;;;5014408;28;20260;-61
2022/01/05 14:34:22;;;;;;;4.25;1.63;;;;;;;;;;5014228;28;20542;-61
2022/01/05 14:36:51;;;;;;;5.05;1.75;;;;;;;;;;5014065;28;20610;-61
2022/01/05 14:39:18;;;;;;;3.72;1.80;;;;;;;;;;5014090;28;20189;-60
2022/01/05 14:41:48;;;;;;;2.45;1.63;;;;;;;;;;5014410;28;20201;-59
2022/01/05 14:44:31;;;;;;;2.55;1.67;;;;;;;;;;5014081;28;20247;-60
2022/01/05 14:46:59;;;;;;;3.10;1.80;;;;;;;;;;5014247;28;20169;-61